aviador You're here:

KDHN Decoded Metar

DOTHAN in AL, USA
Report Time2017-11-20 21:53:00
UTC Time2017-11-20 22:46:38
Flight Rules vfr VFR
Wind140° at 06 kt
W.Decomp.*RWY 14: 6.0 kt HW 0.3 kt RCW
RWY 18: 4.8 kt HW 3.6 kt LCW
W.Rank140° ranks 29
Current wind is below 140° avg. (6.5)
Visibility9999 m
Phenomena:N/A
Clouds:N/A
Expected CloudBase > 5,200 ft AGL from Temp-Dew spread
CeilingNone
Temp15°C (ISA +1)
Dew Point02°C (42% RH)
AAT11.2°C
QNH1022 hPa
Density Alt256 ft
Elevation371 ft
Report Wrong Elevation
Raw Report
METAR KDHN 202153Z 14006KT 10SM CLR 15/02 A3017 RMK AO2 SLP215 T01500022=

Extra information for KDHN:More info

Metar Taf Metar & Taf Last 4 Metars F.Rules Stats Wind Profile Meteogram Temp Stats Airport Information Weather charts Add Link Nearby VenuesMetar ALERT Operation Metar Decoded Social comments

AIRNAV info for KDHN